Lady Nur — 3FFE2 — position and weather

sailwx.info

Track history (hours):
 
Tides and Currents Weather Stations Pressure Air Temp Water Temp Dewpoint Dewpoint Depression Visibility Wind Speed Wind Dir Waves Ship Positions

Lady Nur

Last reported at 2016-Aug-30 16:11 UTC. Time now 2016-Sep-26 13:58 UTC.
Position N 38°54' E 003°23'.
Warning: this ship's position is 26 days out of date.

Length 82 m; draft 5.2 m.

Type: Cargo ship. MMSI: 373237000.

Date/timePositionNaut miles runAvg speedWind from/ knotsBaromVisibWave heightAir tempDewpointWater temp
2016-Aug-30 16:11N 38°54' E 003°23'6 8.1
2016-Aug-30 15:29N 38°57' E 003°16'8 8.3
2016-Aug-30 14:33N 39°00' E 003°08'9 8.5
2016-Aug-30 13:33N 39°05' E 002°58'8 8.3
2016-Aug-30 12:33N 39°09' E 002°50'8 8.3
2016-Aug-30 11:33N 39°16' E 002°43'8 8.0
2016-Aug-30 10:33N 39°21' E 002°35'8 8.1
2016-Aug-30 09:33N 39°26' E 002°26'8 8.0
2016-Aug-30 08:33N 39°31' E 002°19'8 7.6
2016-Aug-30 07:33N 39°38' E 002°15'8 8.0
2016-Aug-30 06:33N 39°46' E 002°14'8 8.1
2016-Aug-30 05:33N 39°54' E 002°14'8 8.0
2016-Aug-30 04:33N 40°02' E 002°14'8 7.8
2016-Aug-30 03:33N 40°10' E 002°14'8 7.9
2016-Aug-30 02:33N 40°18' E 002°13'8 8.3
2016-Aug-30 01:33N 40°26' E 002°12'9 8.6
2016-Aug-30 00:33N 40°35' E 002°12'9 8.6
2016-Aug-29 23:33N 40°43' E 002°12'9 8.8
2016-Aug-29 22:33N 40°52' E 002°11'9 9.2
2016-Aug-29 21:33N 41°02' E 002°10'18 0.8
2016-Aug-29 00:19N 41°20' E 002°11'0 0.0
2016-Aug-28 18:25N 41°20' E 002°11'0 0.0
2016-Aug-28 17:25N 41°20' E 002°11'0 0.0
2016-Aug-28 15:24N 41°20' E 002°11'95 5.3
2016-Aug-27 21:21N 42°05' E 004°03'8 9.5
2016-Aug-27 20:33N 42°09' E 004°12'13 9.3
2016-Aug-27 19:07N 42°15' E 004°28'143 8.1
2016-Aug-27 01:22N 43°22' E 007°21'8 8.4
2016-Aug-27 00:28N 43°25' E 007°31'18 8.5
2016-Aug-26 22:19N 43°33' E 007°53'6 7.7
2016-Aug-26 21:34N 43°34' E 008°01'9 8.8
2016-Aug-26 20:33N 43°37' E 008°13'9 8.7
2016-Aug-26 19:33N 43°40' E 008°24'9 8.6
2016-Aug-26 18:33N 43°42' E 008°36'9 9.3
2016-Aug-26 17:34N 43°45' E 008°48'10 9.6
2016-Aug-26 16:34N 43°48' E 009°01'9 9.5
2016-Aug-26 15:34N 43°51' E 009°13'4 4.3
2016-Aug-26 14:34N 43°52' E 009°19'0 0.4
2016-Aug-26 13:33N 43°51' E 009°18'1 0.5
2016-Aug-26 12:33N 43°51' E 009°18'1 0.6
2016-Aug-26 11:34N 43°51' E 009°17'1 0.5
2016-Aug-26 10:34N 43°51' E 009°16'0 0.4
2016-Aug-26 09:34N 43°50' E 009°16'0 0.4
2016-Aug-26 08:34N 43°50' E 009°16'1 0.5
2016-Aug-26 07:34N 43°50' E 009°16'1 0.6
2016-Aug-26 06:33N 43°49' E 009°16'1 0.6
2016-Aug-26 04:34N 43°48' E 009°16'1 0.6
2016-Aug-26 03:34N 43°47' E 009°16'1 0.8
2016-Aug-26 02:34N 43°46' E 009°16'1 1.0
2016-Aug-26 01:34N 43°46' E 009°17'1 0.8
2016-Aug-26 00:34N 43°45' E 009°18'0 0.4
2016-Aug-25 23:34N 43°46' E 009°19'0 0.3
2016-Aug-25 22:34N 43°46' E 009°19'0 0.4
2016-Aug-25 21:34N 43°46' E 009°19'1 0.8
2016-Aug-25 20:34N 43°47' E 009°18'1 0.9
2016-Aug-25 19:34N 43°48' E 009°18'1 0.9
2016-Aug-25 18:34N 43°48' E 009°17'1 0.8
2016-Aug-25 17:34N 43°48' E 009°15'2 2.0
2016-Aug-25 16:34N 43°50' E 009°15'3 3.4
2016-Aug-25 15:34N 43°54' E 009°15'2 1.6
2016-Aug-25 14:34N 43°55' E 009°15'1 1.0
2016-Aug-25 13:34N 43°55' E 009°14'1 0.7
2016-Aug-25 12:34N 43°55' E 009°13'0 0.4
2016-Aug-25 11:33N 43°54' E 009°12'0 0.3
2016-Aug-25 10:34N 43°54' E 009°12'0 0.2
2016-Aug-25 09:34N 43°54' E 009°11'0 0.1
2016-Aug-25 08:34N 43°54' E 009°11'0 0.4
2016-Aug-25 07:34N 43°54' E 009°12'0 0.3
2016-Aug-25 06:34N 43°54' E 009°12'0 0.2
2016-Aug-25 04:34N 43°55' E 009°13'0 0.1
2016-Aug-25 03:34N 43°54' E 009°13'0 0.2
2016-Aug-25 02:33N 43°54' E 009°13'0 0.4
2016-Aug-25 01:34N 43°54' E 009°14'1 0.5
2016-Aug-25 00:34N 43°54' E 009°14'0 0.4
2016-Aug-24 23:34N 43°54' E 009°15'0 0.2
2016-Aug-24 22:34N 43°54' E 009°15'0 0.1
2016-Aug-24 21:34N 43°54' E 009°15'0 0.1
2016-Aug-24 20:34N 43°54' E 009°15'0 0.2
2016-Aug-24 19:34N 43°54' E 009°15'1 0.7
2016-Aug-24 18:34N 43°54' E 009°14'1 0.8
2016-Aug-24 17:34N 43°53' E 009°14'1 0.5
2016-Aug-24 16:34N 43°53' E 009°14'0 0.5
2016-Aug-24 15:33N 43°52' E 009°13'0 0.4
2016-Aug-24 14:34N 43°52' E 009°14'3 2.7
2016-Aug-24 13:34N 43°55' E 009°14'2 2.2
2016-Aug-24 12:34N 43°57' E 009°14'1 0.6
2016-Aug-24 11:34N 43°58' E 009°13'1 0.6
2016-Aug-24 10:34N 43°58' E 009°12'1 0.5
2016-Aug-24 09:34N 43°58' E 009°12'1 0.6
2016-Aug-24 08:34N 43°58' E 009°11'1 0.6
2016-Aug-24 07:34N 43°58' E 009°10'0 0.5
2016-Aug-24 06:34N 43°58' E 009°09'1 0.4
2016-Aug-24 04:34N 43°58' E 009°08'0 0.3
2016-Aug-24 03:34N 43°58' E 009°08'0 0.3
2016-Aug-24 02:33N 43°58' E 009°08'0 0.4
2016-Aug-24 01:33N 43°58' E 009°07'0 0.4
2016-Aug-24 00:33N 43°58' E 009°07'0 0.4
2016-Aug-23 23:34N 43°57' E 009°06'0 0.3
2016-Aug-23 22:34N 43°57' E 009°06'0 0.2
2016-Aug-23 21:34N 43°57' E 009°06'0 0.1
2016-Aug-23 20:34N 43°57' E 009°06'0 0.3
2016-Aug-23 19:34N 43°57' E 009°05'0 0.4
2016-Aug-23 18:34N 43°57' E 009°05'1 1.3
2016-Aug-23 17:34N 43°59' E 009°04'2 2.4
2016-Aug-23 16:34N 44°01' E 009°03'1 1.5
2016-Aug-23 15:33N 44°02' E 009°02'1 0.9
2016-Aug-23 14:34N 44°02' E 009°01'1 0.9
2016-Aug-23 13:34N 44°02' E 008°60'1 0.9
2016-Aug-23 12:34N 44°02' E 008°58'1 0.9
2016-Aug-23 11:33N 44°01' E 008°57'1 0.7
2016-Aug-23 10:34N 44°01' E 008°56'1 0.7
2016-Aug-23 09:34N 44°01' E 008°55'1 0.8
2016-Aug-23 08:34N 44°00' E 008°55'0 0.4
2016-Aug-23 07:33N 44°00' E 008°55'6 5.6
2016-Aug-23 06:34N 44°06' E 008°55'1 1.2
2016-Aug-23 05:34N 44°05' E 008°55'1 1.2
2016-Aug-23 04:34N 44°04' E 008°55'1 1.1
2016-Aug-23 03:33N 44°03' E 008°55'1 0.9
2016-Aug-23 02:34N 44°02' E 008°55'1 0.8
2016-Aug-23 01:34N 44°01' E 008°55'1 0.6
2016-Aug-23 00:34N 44°00' E 008°55'0 0.3
2016-Aug-22 23:34N 44°00' E 008°56'0 0.3
2016-Aug-22 22:33N 44°01' E 008°56'0 0.4
2016-Aug-22 21:34N 44°01' E 008°56'0 0.2
2016-Aug-22 20:33N 44°01' E 008°56'0 0.3
2016-Aug-22 19:34N 44°02' E 008°55'0 0.4
2016-Aug-22 18:34N 44°02' E 008°55'0 0.3
2016-Aug-22 17:34N 44°02' E 008°55'6 5.5
2016-Aug-22 16:34N 44°07' E 008°56'9 8.5
2016-Aug-22 15:33N 44°16' E 008°57'8 8.0
2016-Aug-22 14:34N 44°24' E 008°55'1 0.7
2016-Aug-22 13:33N 44°24' E 008°54'0 0.0
2016-Aug-22 12:33N 44°24' E 008°54'0 0.0
2016-Aug-22 11:33N 44°24' E 008°54'0 0.0
2016-Aug-22 10:33N 44°24' E 008°54'0 0.0
2016-Aug-22 09:33N 44°24' E 008°54'0 0.0
2016-Aug-22 08:33N 44°24' E 008°54'0 0.0
2016-Aug-22 07:30N 44°24' E 008°54'0 0.0
2016-Aug-22 06:33N 44°24' E 008°54'0 0.0
2016-Aug-22 05:33N 44°24' E 008°54'0 0.0
2016-Aug-22 04:33N 44°24' E 008°54'0 0.0
2016-Aug-22 03:33N 44°24' E 008°54'0 0.0
2016-Aug-22 02:33N 44°24' E 008°54'0 0.0
2016-Aug-22 01:33N 44°24' E 008°54'0 0.0
2016-Aug-22 00:33N 44°24' E 008°54'0 0.0
2016-Aug-21 23:33N 44°24' E 008°54'0 0.0
2016-Aug-21 22:30N 44°24' E 008°54'0 0.0
2016-Aug-21 21:30N 44°24' E 008°54'0 0.0
2016-Aug-21 20:33N 44°24' E 008°54'0 0.0
2016-Aug-21 19:27N 44°24' E 008°54'0 0.0
2016-Aug-21 18:24N 44°24' E 008°54'0 0.0
2016-Aug-21 17:30N 44°24' E 008°54'0 0.0
2016-Aug-21 16:33N 44°24' E 008°54'0 0.0
2016-Aug-21 15:30N 44°24' E 008°54'0 0.0
2016-Aug-21 14:30N 44°24' E 008°54'0 0.0
2016-Aug-21 13:30N 44°24' E 008°54'0 0.0
2016-Aug-21 12:33N 44°24' E 008°54'0 0.0
2016-Aug-21 11:33N 44°24' E 008°54'0 0.0
2016-Aug-21 10:32N 44°24' E 008°54'0 0.0
2016-Aug-21 09:32N 44°24' E 008°54'0 0.0
2016-Aug-21 08:32N 44°24' E 008°54'0 0.0
2016-Aug-21 07:32N 44°24' E 008°54'0 0.0
2016-Aug-21 06:32N 44°24' E 008°54'0 0.0
2016-Aug-21 05:32N 44°24' E 008°54'0 0.0
2016-Aug-21 04:32N 44°24' E 008°54'0 0.0
2016-Aug-21 03:32N 44°24' E 008°54'0 0.0
2016-Aug-21 02:32N 44°24' E 008°54'0 0.0
2016-Aug-21 01:32N 44°24' E 008°54'0 0.0
2016-Aug-21 00:32N 44°24' E 008°54'0 0.0
2016-Aug-20 23:32N 44°24' E 008°54'0 0.0
2016-Aug-20 22:26N 44°24' E 008°54'0 0.0
2016-Aug-20 21:29N 44°24' E 008°54'0 0.0
2016-Aug-20 20:32N 44°24' E 008°54'0 0.0
2016-Aug-20 19:26N 44°24' E 008°54'0 0.0
2016-Aug-20 18:29N 44°24' E 008°54'0 0.0
2016-Aug-20 17:29N 44°24' E 008°54'0 0.0
2016-Aug-20 16:32N 44°24' E 008°54'  
Track history (hours):
 
Tides and Currents Weather Stations Pressure Air Temp Water Temp Dewpoint Dewpoint Depression Visibility Wind Speed Wind Dir Waves Ship Positions

Lady Nur

Last reported at 2016-Aug-30 16:11 UTC. Time now 2016-Sep-26 13:58 UTC.
Position N 38°54' E 003°23'.
Warning: this ship's position is 26 days out of date.

Length 82 m; draft 5.2 m.

Type: Cargo ship. MMSI: 373237000.

Date/timePositionNaut miles runAvg speedWind from/ knotsBaromVisibWave heightAir tempDewpointWater temp
2016-Aug-30 16:11N 38°54' E 003°23'6 8.1
2016-Aug-30 15:29N 38°57' E 003°16'8 8.3
2016-Aug-30 14:33N 39°00' E 003°08'9 8.5
2016-Aug-30 13:33N 39°05' E 002°58'8 8.3
2016-Aug-30 12:33N 39°09' E 002°50'8 8.3
2016-Aug-30 11:33N 39°16' E 002°43'8 8.0
2016-Aug-30 10:33N 39°21' E 002°35'8 8.1
2016-Aug-30 09:33N 39°26' E 002°26'8 8.0
2016-Aug-30 08:33N 39°31' E 002°19'8 7.6
2016-Aug-30 07:33N 39°38' E 002°15'8 8.0
2016-Aug-30 06:33N 39°46' E 002°14'8 8.1
2016-Aug-30 05:33N 39°54' E 002°14'8 8.0
2016-Aug-30 04:33N 40°02' E 002°14'8 7.8
2016-Aug-30 03:33N 40°10' E 002°14'8 7.9
2016-Aug-30 02:33N 40°18' E 002°13'8 8.3
2016-Aug-30 01:33N 40°26' E 002°12'9 8.6
2016-Aug-30 00:33N 40°35' E 002°12'9 8.6
2016-Aug-29 23:33N 40°43' E 002°12'9 8.8
2016-Aug-29 22:33N 40°52' E 002°11'9 9.2
2016-Aug-29 21:33N 41°02' E 002°10'18 0.8
2016-Aug-29 00:19N 41°20' E 002°11'0 0.0
2016-Aug-28 18:25N 41°20' E 002°11'0 0.0
2016-Aug-28 17:25N 41°20' E 002°11'0 0.0
2016-Aug-28 15:24N 41°20' E 002°11'95 5.3
2016-Aug-27 21:21N 42°05' E 004°03'8 9.5
2016-Aug-27 20:33N 42°09' E 004°12'13 9.3
2016-Aug-27 19:07N 42°15' E 004°28'143 8.1
2016-Aug-27 01:22N 43°22' E 007°21'8 8.4
2016-Aug-27 00:28N 43°25' E 007°31'18 8.5
2016-Aug-26 22:19N 43°33' E 007°53'6 7.7
2016-Aug-26 21:34N 43°34' E 008°01'9 8.8
2016-Aug-26 20:33N 43°37' E 008°13'9 8.7
2016-Aug-26 19:33N 43°40' E 008°24'9 8.6
2016-Aug-26 18:33N 43°42' E 008°36'9 9.3
2016-Aug-26 17:34N 43°45' E 008°48'10 9.6
2016-Aug-26 16:34N 43°48' E 009°01'9 9.5
2016-Aug-26 15:34N 43°51' E 009°13'4 4.3
2016-Aug-26 14:34N 43°52' E 009°19'0 0.4
2016-Aug-26 13:33N 43°51' E 009°18'1 0.5
2016-Aug-26 12:33N 43°51' E 009°18'1 0.6
2016-Aug-26 11:34N 43°51' E 009°17'1 0.5
2016-Aug-26 10:34N 43°51' E 009°16'0 0.4
2016-Aug-26 09:34N 43°50' E 009°16'0 0.4
2016-Aug-26 08:34N 43°50' E 009°16'1 0.5
2016-Aug-26 07:34N 43°50' E 009°16'1 0.6
2016-Aug-26 06:33N 43°49' E 009°16'1 0.6
2016-Aug-26 04:34N 43°48' E 009°16'1 0.6
2016-Aug-26 03:34N 43°47' E 009°16'1 0.8
2016-Aug-26 02:34N 43°46' E 009°16'1 1.0
2016-Aug-26 01:34N 43°46' E 009°17'1 0.8
2016-Aug-26 00:34N 43°45' E 009°18'0 0.4
2016-Aug-25 23:34N 43°46' E 009°19'0 0.3
2016-Aug-25 22:34N 43°46' E 009°19'0 0.4
2016-Aug-25 21:34N 43°46' E 009°19'1 0.8
2016-Aug-25 20:34N 43°47' E 009°18'1 0.9
2016-Aug-25 19:34N 43°48' E 009°18'1 0.9
2016-Aug-25 18:34N 43°48' E 009°17'1 0.8
2016-Aug-25 17:34N 43°48' E 009°15'2 2.0
2016-Aug-25 16:34N 43°50' E 009°15'3 3.4
2016-Aug-25 15:34N 43°54' E 009°15'2 1.6
2016-Aug-25 14:34N 43°55' E 009°15'1 1.0
2016-Aug-25 13:34N 43°55' E 009°14'1 0.7
2016-Aug-25 12:34N 43°55' E 009°13'0 0.4
2016-Aug-25 11:33N 43°54' E 009°12'0 0.3
2016-Aug-25 10:34N 43°54' E 009°12'0 0.2
2016-Aug-25 09:34N 43°54' E 009°11'0 0.1
2016-Aug-25 08:34N 43°54' E 009°11'0 0.4
2016-Aug-25 07:34N 43°54' E 009°12'0 0.3
2016-Aug-25 06:34N 43°54' E 009°12'0 0.2
2016-Aug-25 04:34N 43°55' E 009°13'0 0.1
2016-Aug-25 03:34N 43°54' E 009°13'0 0.2
2016-Aug-25 02:33N 43°54' E 009°13'0 0.4
2016-Aug-25 01:34N 43°54' E 009°14'1 0.5
2016-Aug-25 00:34N 43°54' E 009°14'0 0.4
2016-Aug-24 23:34N 43°54' E 009°15'0 0.2
2016-Aug-24 22:34N 43°54' E 009°15'0 0.1
2016-Aug-24 21:34N 43°54' E 009°15'0 0.1
2016-Aug-24 20:34N 43°54' E 009°15'0 0.2
2016-Aug-24 19:34N 43°54' E 009°15'1 0.7
2016-Aug-24 18:34N 43°54' E 009°14'1 0.8
2016-Aug-24 17:34N 43°53' E 009°14'1 0.5
2016-Aug-24 16:34N 43°53' E 009°14'0 0.5
2016-Aug-24 15:33N 43°52' E 009°13'0 0.4
2016-Aug-24 14:34N 43°52' E 009°14'3 2.7
2016-Aug-24 13:34N 43°55' E 009°14'2 2.2
2016-Aug-24 12:34N 43°57' E 009°14'1 0.6
2016-Aug-24 11:34N 43°58' E 009°13'1 0.6
2016-Aug-24 10:34N 43°58' E 009°12'1 0.5
2016-Aug-24 09:34N 43°58' E 009°12'1 0.6
2016-Aug-24 08:34N 43°58' E 009°11'1 0.6
2016-Aug-24 07:34N 43°58' E 009°10'0 0.5
2016-Aug-24 06:34N 43°58' E 009°09'1 0.4
2016-Aug-24 04:34N 43°58' E 009°08'0 0.3
2016-Aug-24 03:34N 43°58' E 009°08'0 0.3
2016-Aug-24 02:33N 43°58' E 009°08'0 0.4
2016-Aug-24 01:33N 43°58' E 009°07'0 0.4
2016-Aug-24 00:33N 43°58' E 009°07'0 0.4
2016-Aug-23 23:34N 43°57' E 009°06'0 0.3
2016-Aug-23 22:34N 43°57' E 009°06'0 0.2
2016-Aug-23 21:34N 43°57' E 009°06'0 0.1
2016-Aug-23 20:34N 43°57' E 009°06'0 0.3
2016-Aug-23 19:34N 43°57' E 009°05'0 0.4
2016-Aug-23 18:34N 43°57' E 009°05'1 1.3
2016-Aug-23 17:34N 43°59' E 009°04'2 2.4
2016-Aug-23 16:34N 44°01' E 009°03'1 1.5
2016-Aug-23 15:33N 44°02' E 009°02'1 0.9
2016-Aug-23 14:34N 44°02' E 009°01'1 0.9
2016-Aug-23 13:34N 44°02' E 008°60'1 0.9
2016-Aug-23 12:34N 44°02' E 008°58'1 0.9
2016-Aug-23 11:33N 44°01' E 008°57'1 0.7
2016-Aug-23 10:34N 44°01' E 008°56'1 0.7
2016-Aug-23 09:34N 44°01' E 008°55'1 0.8
2016-Aug-23 08:34N 44°00' E 008°55'0 0.4
2016-Aug-23 07:33N 44°00' E 008°55'6 5.6
2016-Aug-23 06:34N 44°06' E 008°55'1 1.2
2016-Aug-23 05:34N 44°05' E 008°55'1 1.2
2016-Aug-23 04:34N 44°04' E 008°55'1 1.1
2016-Aug-23 03:33N 44°03' E 008°55'1 0.9
2016-Aug-23 02:34N 44°02' E 008°55'1 0.8
2016-Aug-23 01:34N 44°01' E 008°55'1 0.6
2016-Aug-23 00:34N 44°00' E 008°55'0 0.3
2016-Aug-22 23:34N 44°00' E 008°56'0 0.3
2016-Aug-22 22:33N 44°01' E 008°56'0 0.4
2016-Aug-22 21:34N 44°01' E 008°56'0 0.2
2016-Aug-22 20:33N 44°01' E 008°56'0 0.3
2016-Aug-22 19:34N 44°02' E 008°55'0 0.4
2016-Aug-22 18:34N 44°02' E 008°55'0 0.3
2016-Aug-22 17:34N 44°02' E 008°55'6 5.5
2016-Aug-22 16:34N 44°07' E 008°56'9 8.5
2016-Aug-22 15:33N 44°16' E 008°57'8 8.0
2016-Aug-22 14:34N 44°24' E 008°55'1 0.7
2016-Aug-22 13:33N 44°24' E 008°54'0 0.0
2016-Aug-22 12:33N 44°24' E 008°54'0 0.0
2016-Aug-22 11:33N 44°24' E 008°54'0 0.0
2016-Aug-22 10:33N 44°24' E 008°54'0 0.0
2016-Aug-22 09:33N 44°24' E 008°54'0 0.0
2016-Aug-22 08:33N 44°24' E 008°54'0 0.0
2016-Aug-22 07:30N 44°24' E 008°54'0 0.0
2016-Aug-22 06:33N 44°24' E 008°54'0 0.0
2016-Aug-22 05:33N 44°24' E 008°54'0 0.0
2016-Aug-22 04:33N 44°24' E 008°54'0 0.0
2016-Aug-22 03:33N 44°24' E 008°54'0 0.0
2016-Aug-22 02:33N 44°24' E 008°54'0 0.0
2016-Aug-22 01:33N 44°24' E 008°54'0 0.0
2016-Aug-22 00:33N 44°24' E 008°54'0 0.0
2016-Aug-21 23:33N 44°24' E 008°54'0 0.0
2016-Aug-21 22:30N 44°24' E 008°54'0 0.0
2016-Aug-21 21:30N 44°24' E 008°54'0 0.0
2016-Aug-21 20:33N 44°24' E 008°54'0 0.0
2016-Aug-21 19:27N 44°24' E 008°54'0 0.0
2016-Aug-21 18:24N 44°24' E 008°54'0 0.0
2016-Aug-21 17:30N 44°24' E 008°54'0 0.0
2016-Aug-21 16:33N 44°24' E 008°54'0 0.0
2016-Aug-21 15:30N 44°24' E 008°54'0 0.0
2016-Aug-21 14:30N 44°24' E 008°54'0 0.0
2016-Aug-21 13:30N 44°24' E 008°54'0 0.0
2016-Aug-21 12:33N 44°24' E 008°54'0 0.0
2016-Aug-21 11:33N 44°24' E 008°54'0 0.0
2016-Aug-21 10:32N 44°24' E 008°54'0 0.0
2016-Aug-21 09:32N 44°24' E 008°54'0 0.0
2016-Aug-21 08:32N 44°24' E 008°54'0 0.0
2016-Aug-21 07:32N 44°24' E 008°54'0 0.0
2016-Aug-21 06:32N 44°24' E 008°54'0 0.0
2016-Aug-21 05:32N 44°24' E 008°54'0 0.0
2016-Aug-21 04:32N 44°24' E 008°54'0 0.0
2016-Aug-21 03:32N 44°24' E 008°54'0 0.0
2016-Aug-21 02:32N 44°24' E 008°54'0 0.0
2016-Aug-21 01:32N 44°24' E 008°54'0 0.0
2016-Aug-21 00:32N 44°24' E 008°54'0 0.0
2016-Aug-20 23:32N 44°24' E 008°54'0 0.0
2016-Aug-20 22:26N 44°24' E 008°54'0 0.0
2016-Aug-20 21:29N 44°24' E 008°54'0 0.0
2016-Aug-20 20:32N 44°24' E 008°54'0 0.0
2016-Aug-20 19:26N 44°24' E 008°54'0 0.0
2016-Aug-20 18:29N 44°24' E 008°54'0 0.0
2016-Aug-20 17:29N 44°24' E 008°54'0 0.0
2016-Aug-20 16:32N 44°24' E 008°54'  

Dump ship's entire track history